Time,TemperatureF,DewpointF,PressureIn,WindDirection,WindDirectionDegrees,WindSpeedMPH,WindSpeedGustMPH,Humidity,HourlyPrecipIn,Conditions,Clouds,dailyrainin,SoftwareType,DateUTC
2013-09-30 00:00:00,61.8,59.1,29.99,WNW,288,0.0,0.0,91,0.00,,,0.00,WeatherDisplay:10.37,2013-09-30 04:00:00,
2013-09-30 00:01:00,61.8,59.1,29.99,WNW,288,0.0,0.0,91,0.00,,,0.00,WeatherDisplay:10.37,2013-09-30 04:01:00,
2013-09-30 00:06:00,61.7,59.0,29.99,WNW,288,0.0,0.0,91,0.00,,,0.00,WeatherDisplay:10.37,2013-09-30 04:06:00,
2013-09-30 00:11:00,61.7,59.0,29.98,WNW,288,0.0,0.0,91,0.00,,,0.00,WeatherDisplay:10.37,2013-09-30 04:11:00,
2013-09-30 00:16:00,61.7,59.0,29.98,WNW,288,0.0,0.0,91,0.00,,,0.00,WeatherDisplay:10.37,2013-09-30 04:16:00,
2013-09-30 00:21:00,61.7,59.0,29.98,WNW,288,0.0,0.0,91,0.00,,,0.00,WeatherDisplay:10.37,2013-09-30 04:21:00,
2013-09-30 00:26:00,61.6,58.9,29.98,WNW,288,0.0,0.0,91,0.00,,,0.00,WeatherDisplay:10.37,2013-09-30 04:26:00,
2013-09-30 00:31:00,61.6,58.9,29.98,WNW,288,0.0,0.0,91,0.00,,,0.00,WeatherDisplay:10.37,2013-09-30 04:31:00,
2013-09-30 00:36:00,61.7,59.0,29.98,WNW,288,0.1,0.0,91,0.00,,,0.00,WeatherDisplay:10.37,2013-09-30 04:36:00,
2013-09-30 00:41:00,61.7,59.0,29.98,WNW,288,0.1,1.2,91,0.00,,,0.00,WeatherDisplay:10.37,2013-09-30 04:41:00,
2013-09-30 00:46:00,61.7,59.0,29.98,WNW,288,0.0,0.0,91,0.00,,,0.00,WeatherDisplay:10.37,2013-09-30 04:46:00,
2013-09-30 00:51:00,61.7,59.0,29.98,WNW,288,0.0,0.0,91,0.00,,,0.00,WeatherDisplay:10.37,2013-09-30 04:51:00,
2013-09-30 00:56:00,61.6,58.9,29.98,WNW,288,0.2,1.2,91,0.00,,,0.00,WeatherDisplay:10.37,2013-09-30 04:56:00,
2013-09-30 01:01:00,61.6,58.9,29.98,WNW,288,0.5,1.2,91,0.00,,,0.00,WeatherDisplay:10.37,2013-09-30 05:01:00,
2013-09-30 01:06:00,61.6,59.3,29.98,WNW,288,0.0,0.0,92,0.00,,,0.00,WeatherDisplay:10.37,2013-09-30 05:06:00,
2013-09-30 01:11:00,61.5,59.2,29.98,WNW,288,0.0,0.0,92,0.00,,,0.00,WeatherDisplay:10.37,2013-09-30 05:11:00,
2013-09-30 01:16:00,61.5,59.2,29.97,WNW,288,0.0,0.0,92,0.00,,,0.00,WeatherDisplay:10.37,2013-09-30 05:16:00,
2013-09-30 01:21:00,61.4,59.1,29.97,WNW,288,0.0,0.0,92,0.00,,,0.00,WeatherDisplay:10.37,2013-09-30 05:21:00,
2013-09-30 01:26:00,61.4,59.1,29.97,WNW,288,0.0,0.0,92,0.00,,,0.00,WeatherDisplay:10.37,2013-09-30 05:26:00,
2013-09-30 01:31:00,61.4,59.1,29.97,WNW,288,0.3,1.2,92,0.00,,,0.00,WeatherDisplay:10.37,2013-09-30 05:31:00,
2013-09-30 01:36:00,61.4,59.1,29.97,WNW,288,0.4,2.3,92,0.00,,,0.00,WeatherDisplay:10.37,2013-09-30 05:36:00,
2013-09-30 01:41:00,61.4,59.1,29.97,WNW,288,0.0,0.0,92,0.00,,,0.00,WeatherDisplay:10.37,2013-09-30 05:41:00,
2013-09-30 01:46:00,61.3,59.0,29.97,WNW,288,0.0,0.0,92,0.00,,,0.00,WeatherDisplay:10.37,2013-09-30 05:46:00,
2013-09-30 01:51:00,61.3,59.0,29.97,WNW,288,0.0,0.0,92,0.00,,,0.00,WeatherDisplay:10.37,2013-09-30 05:51:00,
2013-09-30 01:56:00,61.2,58.9,29.97,WNW,288,0.0,1.2,92,0.00,,,0.00,WeatherDisplay:10.37,2013-09-30 05:56:00,
2013-09-30 02:01:00,61.1,58.8,29.97,WNW,288,0.0,0.0,92,0.00,,,0.00,WeatherDisplay:10.37,2013-09-30 06:01:00,
2013-09-30 02:06:00,61.1,59.1,29.97,WNW,288,0.0,0.0,93,0.00,,,0.00,WeatherDisplay:10.37,2013-09-30 06:06:00,
2013-09-30 02:11:00,61.1,59.1,29.97,WNW,288,0.1,0.0,93,0.00,,,0.00,WeatherDisplay:10.37,2013-09-30 06:11:00,
2013-09-30 02:16:00,61.1,59.1,29.97,WNW,288,0.1,1.2,93,0.00,,,0.00,WeatherDisplay:10.37,2013-09-30 06:16:00,
2013-09-30 02:21:00,61.2,58.9,29.97,WNW,288,0.0,0.0,92,0.00,,,0.00,WeatherDisplay:10.37,2013-09-30 06:21:00,
2013-09-30 02:26:00,61.3,59.0,29.97,WNW,288,0.2,1.2,92,0.00,,,0.00,WeatherDisplay:10.37,2013-09-30 06:26:00,
2013-09-30 02:31:00,61.3,59.0,29.97,WNW,288,0.1,0.0,92,0.00,,,0.00,WeatherDisplay:10.37,2013-09-30 06:31:00,
2013-09-30 02:36:00,61.4,58.7,29.97,WNW,288,0.0,0.0,91,0.00,,,0.00,WeatherDisplay:10.37,2013-09-30 06:36:00,
2013-09-30 02:41:00,61.5,58.8,29.97,WNW,288,0.2,1.2,91,0.00,,,0.00,WeatherDisplay:10.37,2013-09-30 06:41:00,
2013-09-30 02:46:00,61.4,58.7,29.96,WNW,287,0.0,0.0,91,0.00,,,0.00,WeatherDisplay:10.37,2013-09-30 06:46:00,
2013-09-30 02:51:00,61.4,58.7,29.96,WNW,283,1.2,2.3,91,0.00,,,0.00,WeatherDisplay:10.37,2013-09-30 06:51:00,
2013-09-30 02:56:00,61.4,58.7,29.96,WNW,283,0.5,2.3,91,0.00,,,0.00,WeatherDisplay:10.37,2013-09-30 06:56:00,
2013-09-30 03:01:00,61.4,58.7,29.96,WNW,283,0.0,0.0,91,0.00,,,0.00,WeatherDisplay:10.37,2013-09-30 07:01:00,
2013-09-30 03:06:00,61.3,58.7,29.96,WNW,283,0.1,1.2,91,0.00,,,0.00,WeatherDisplay:10.37,2013-09-30 07:06:00,
2013-09-30 03:11:00,61.3,58.7,29.96,WNW,283,0.1,1.2,91,0.00,,,0.00,WeatherDisplay:10.37,2013-09-30 07:11:00,
2013-09-30 03:16:00,61.3,59.0,29.96,West,279,0.0,1.2,92,0.00,,,0.00,WeatherDisplay:10.37,2013-09-30 07:16:00,
2013-09-30 03:21:00,61.3,58.7,29.96,WSW,255,0.2,1.2,91,0.00,,,0.00,WeatherDisplay:10.37,2013-09-30 07:21:00,
2013-09-30 03:26:00,61.3,58.7,29.96,WSW,255,0.1,0.0,91,0.00,,,0.00,WeatherDisplay:10.37,2013-09-30 07:26:00,
2013-09-30 03:31:00,61.4,58.7,29.96,WSW,255,0.0,2.3,91,0.00,,,0.00,WeatherDisplay:10.37,2013-09-30 07:31:00,
2013-09-30 03:36:00,61.4,58.7,29.96,South,180,0.3,1.2,91,0.00,,,0.00,WeatherDisplay:10.37,2013-09-30 07:36:00,
2013-09-30 03:41:00,61.4,58.7,29.96,SW,215,0.5,2.3,91,0.00,,,0.00,WeatherDisplay:10.37,2013-09-30 07:41:00,
2013-09-30 03:46:00,61.4,58.7,29.96,SW,217,0.3,1.0,91,0.00,,,0.00,WeatherDisplay:10.37,2013-09-30 07:46:00,
2013-09-30 03:51:00,61.4,58.7,29.96,SW,217,0.7,2.3,91,0.00,,,0.00,WeatherDisplay:10.37,2013-09-30 07:51:00,
2013-09-30 03:56:00,61.4,58.7,29.96,SW,218,1.2,2.3,91,0.00,,,0.00,WeatherDisplay:10.37,2013-09-30 07:56:00,
2013-09-30 04:01:00,61.4,58.7,29.96,SW,218,0.0,1.2,91,0.00,,,0.00,WeatherDisplay:10.37,2013-09-30 08:01:00,
2013-09-30 04:06:00,61.3,58.7,29.96,SW,232,1.0,1.2,91,0.00,,,0.00,WeatherDisplay:10.37,2013-09-30 08:06:00,
2013-09-30 04:12:00,61.3,58.7,29.96,SW,232,0.1,1.2,91,0.00,,,0.00,WeatherDisplay:10.37,2013-09-30 08:12:00,
2013-09-30 04:17:00,61.3,58.7,29.96,SW,227,1.5,3.5,91,0.00,,,0.00,WeatherDisplay:10.37,2013-09-30 08:17:00,
2013-09-30 04:22:00,61.3,58.7,29.96,SW,227,0.0,1.2,91,0.00,,,0.00,WeatherDisplay:10.37,2013-09-30 08:22:00,
2013-09-30 04:27:00,61.3,58.7,29.96,SW,227,0.0,0.0,91,0.00,,,0.00,WeatherDisplay:10.37,2013-09-30 08:27:00,
2013-09-30 04:32:00,61.3,58.7,29.96,SW,227,0.0,0.0,91,0.00,,,0.00,WeatherDisplay:10.37,2013-09-30 08:32:00,
2013-09-30 04:37:00,61.3,58.7,29.96,SW,227,0.1,1.2,91,0.00,,,0.00,WeatherDisplay:10.37,2013-09-30 08:37:00,
2013-09-30 04:42:00,61.3,58.7,29.96,SW,227,0.2,1.2,91,0.00,,,0.00,WeatherDisplay:10.37,2013-09-30 08:42:00,
2013-09-30 04:47:00,61.3,58.7,29.96,SW,227,0.4,2.3,91,0.00,,,0.00,WeatherDisplay:10.37,2013-09-30 08:47:00,
2013-09-30 04:52:00,61.2,58.6,29.96,SW,227,0.4,1.2,91,0.00,,,0.00,WeatherDisplay:10.37,2013-09-30 08:52:00,
2013-09-30 04:57:00,61.2,58.6,29.96,SW,227,1.0,2.3,91,0.00,,,0.00,WeatherDisplay:10.37,2013-09-30 08:57:00,
2013-09-30 05:02:00,61.3,58.7,29.96,SW,227,0.6,1.2,91,0.00,,,0.00,WeatherDisplay:10.37,2013-09-30 09:02:00,
2013-09-30 05:07:00,61.3,58.7,29.96,SW,227,0.1,1.2,91,0.00,,,0.00,WeatherDisplay:10.37,2013-09-30 09:07:00,
2013-09-30 05:12:00,61.3,58.7,29.96,SW,227,0.3,1.2,91,0.00,,,0.00,WeatherDisplay:10.37,2013-09-30 09:12:00,
2013-09-30 05:17:00,61.2,58.6,29.96,SW,227,0.2,2.3,91,0.00,,,0.00,WeatherDisplay:10.37,2013-09-30 09:17:00,
2013-09-30 05:22:00,61.1,58.5,29.96,SW,227,0.7,2.3,91,0.00,,,0.00,WeatherDisplay:10.37,2013-09-30 09:22:00,
2013-09-30 05:27:00,61.1,58.5,29.96,SW,227,0.3,1.2,91,0.00,,,0.00,WeatherDisplay:10.37,2013-09-30 09:27:00,
2013-09-30 05:32:00,61.0,58.4,29.96,SW,227,0.4,1.2,91,0.00,,,0.00,WeatherDisplay:10.37,2013-09-30 09:32:00,
2013-09-30 05:37:00,61.0,58.4,29.96,SW,227,1.0,2.3,91,0.00,,,0.00,WeatherDisplay:10.37,2013-09-30 09:37:00,
2013-09-30 05:42:00,60.9,58.3,29.96,SW,227,0.3,1.2,91,0.00,,,0.00,WeatherDisplay:10.37,2013-09-30 09:42:00,
2013-09-30 05:47:00,61.0,58.4,29.96,SW,227,0.3,1.2,91,0.00,,,0.00,WeatherDisplay:10.37,2013-09-30 09:47:00,
2013-09-30 05:52:00,60.9,58.3,29.96,SW,227,0.5,1.2,91,0.00,,,0.00,WeatherDisplay:10.37,2013-09-30 09:52:00,
2013-09-30 05:57:00,60.9,58.3,29.96,SW,227,0.0,0.0,91,0.00,,,0.00,WeatherDisplay:10.37,2013-09-30 09:57:00,
2013-09-30 06:02:00,60.9,58.3,29.96,SW,227,0.0,0.0,91,0.00,,,0.00,WeatherDisplay:10.37,2013-09-30 10:02:00,
2013-09-30 06:07:00,60.9,58.3,29.96,SW,227,0.0,1.2,91,0.00,,,0.00,WeatherDisplay:10.37,2013-09-30 10:07:00,
2013-09-30 06:12:00,60.8,58.2,29.96,SW,227,0.1,1.2,91,0.00,,,0.00,WeatherDisplay:10.37,2013-09-30 10:12:00,
2013-09-30 06:17:00,60.7,58.1,29.96,SW,227,0.3,1.2,91,0.00,,,0.00,WeatherDisplay:10.37,2013-09-30 10:17:00,
2013-09-30 06:22:00,60.7,58.1,29.96,SW,227,0.6,1.2,91,0.00,,,0.00,WeatherDisplay:10.37,2013-09-30 10:22:00,
2013-09-30 06:27:00,60.8,58.2,29.96,SW,227,0.7,2.3,91,0.00,,,0.00,WeatherDisplay:10.37,2013-09-30 10:27:00,
2013-09-30 06:32:00,60.8,58.2,29.97,SW,227,1.0,2.3,91,0.00,,,0.00,WeatherDisplay:10.37,2013-09-30 10:32:00,
2013-09-30 06:37:00,60.9,58.3,29.97,SW,227,1.3,2.3,91,0.00,,,0.00,WeatherDisplay:10.37,2013-09-30 10:37:00,
2013-09-30 06:42:00,61.0,58.0,29.97,SW,216,1.3,3.5,90,0.00,,,0.00,WeatherDisplay:10.37,2013-09-30 10:42:00,
2013-09-30 06:47:00,61.0,58.0,29.97,SW,216,1.3,2.3,90,0.00,,,0.00,WeatherDisplay:10.37,2013-09-30 10:47:00,
2013-09-30 06:52:00,61.1,58.1,29.97,SW,222,1.5,3.5,90,0.00,,,0.00,WeatherDisplay:10.37,2013-09-30 10:52:00,
2013-09-30 06:57:00,61.1,58.1,29.97,SW,222,1.4,2.3,90,0.00,,,0.00,WeatherDisplay:10.37,2013-09-30 10:57:00,
2013-09-30 07:02:00,61.1,58.1,29.97,SW,220,1.5,3.5,90,0.00,,,0.00,WeatherDisplay:10.37,2013-09-30 11:02:00,
2013-09-30 07:07:00,61.1,58.1,29.97,SW,219,1.3,3.5,90,0.00,,,0.00,WeatherDisplay:10.37,2013-09-30 11:07:00,
2013-09-30 07:12:00,61.1,58.1,29.97,SW,223,1.3,3.5,90,0.00,,,0.00,WeatherDisplay:10.37,2013-09-30 11:12:00,
2013-09-30 07:17:00,61.0,58.0,29.97,SW,222,1.6,2.3,90,0.00,,,0.00,WeatherDisplay:10.37,2013-09-30 11:17:00,
2013-09-30 07:22:00,60.9,58.3,29.97,SW,226,1.6,3.5,91,0.00,,,0.00,WeatherDisplay:10.37,2013-09-30 11:22:00,
2013-09-30 07:27:00,60.8,58.2,29.97,SW,228,1.0,2.3,91,0.00,,,0.00,WeatherDisplay:10.37,2013-09-30 11:27:00,
2013-09-30 07:32:00,60.8,58.2,29.97,SW,223,1.0,2.3,91,0.00,,,0.00,WeatherDisplay:10.37,2013-09-30 11:32:00,
2013-09-30 07:37:00,60.8,58.2,29.97,SW,218,0.8,3.0,91,0.00,,,0.00,WeatherDisplay:10.37,2013-09-30 11:37:00,
2013-09-30 07:42:00,60.8,58.2,29.98,SW,221,1.2,3.5,91,0.00,,,0.00,WeatherDisplay:10.37,2013-09-30 11:42:00,
2013-09-30 07:47:00,60.8,58.2,29.98,SSW,208,0.1,1.2,91,0.00,,,0.00,WeatherDisplay:10.37,2013-09-30 11:47:00,
2013-09-30 07:52:00,60.8,58.2,29.98,SSW,209,0.8,2.3,91,0.00,,,0.00,WeatherDisplay:10.37,2013-09-30 11:52:00,
2013-09-30 07:57:00,60.9,58.3,29.98,SW,224,0.4,2.3,91,0.00,,,0.00,WeatherDisplay:10.37,2013-09-30 11:57:00,
2013-09-30 08:02:00,60.8,58.2,29.98,SW,224,1.3,2.3,91,0.00,,,0.00,WeatherDisplay:10.37,2013-09-30 12:02:00,
2013-09-30 08:07:00,60.8,58.2,29.98,SW,224,1.4,2.3,91,0.00,,,0.00,WeatherDisplay:10.37,2013-09-30 12:07:00,
2013-09-30 08:12:00,60.8,58.5,29.98,SW,224,1.0,2.3,92,0.00,,,0.00,WeatherDisplay:10.37,2013-09-30 12:12:00,
2013-09-30 08:17:00,60.8,58.5,29.98,SW,224,0.3,1.2,92,0.00,,,0.00,WeatherDisplay:10.37,2013-09-30 12:17:00,
2013-09-30 08:22:00,60.9,58.6,29.98,SW,223,0.7,2.3,92,0.00,,,0.00,WeatherDisplay:10.37,2013-09-30 12:22:00,
2013-09-30 08:27:00,60.9,58.6,29.98,SW,223,1.7,3.5,92,0.00,,,0.00,WeatherDisplay:10.37,2013-09-30 12:27:00,
2013-09-30 08:32:00,60.9,58.6,29.98,SW,223,1.2,2.3,92,0.00,,,0.00,WeatherDisplay:10.37,2013-09-30 12:32:00,
2013-09-30 08:37:00,61.0,58.7,29.98,SW,223,0.6,1.2,92,0.00,,,0.00,WeatherDisplay:10.37,2013-09-30 12:37:00,
2013-09-30 08:42:00,61.1,58.5,29.99,SW,223,0.6,2.3,91,0.00,,,0.00,WeatherDisplay:10.37,2013-09-30 12:42:00,
2013-09-30 08:47:00,61.1,58.5,29.99,SW,223,0.5,2.3,91,0.00,,,0.00,WeatherDisplay:10.37,2013-09-30 12:47:00,
2013-09-30 08:52:00,61.2,58.9,29.99,SW,224,0.5,2.3,92,0.00,,,0.00,WeatherDisplay:10.37,2013-09-30 12:52:00,
2013-09-30 08:57:00,61.2,58.6,29.98,SW,230,0.9,3.5,91,0.00,,,0.00,WeatherDisplay:10.37,2013-09-30 12:57:00,
2013-09-30 09:02:00,61.4,58.7,29.99,SW,230,0.1,1.2,91,0.00,,,0.00,WeatherDisplay:10.37,2013-09-30 13:02:00,
2013-09-30 09:07:00,61.5,58.8,29.98,SW,234,1.2,2.3,91,0.00,,,0.00,WeatherDisplay:10.37,2013-09-30 13:07:00,
2013-09-30 09:12:00,61.7,59.0,29.99,SW,234,0.9,2.3,91,0.00,,,0.00,WeatherDisplay:10.37,2013-09-30 13:12:00,
2013-09-30 09:17:00,61.9,58.9,29.99,SW,234,0.3,1.2,90,0.00,,,0.00,WeatherDisplay:10.37,2013-09-30 13:17:00,
2013-09-30 09:22:00,62.2,59.2,29.99,West,260,2.6,3.5,90,0.00,,,0.00,WeatherDisplay:10.37,2013-09-30 13:22:00,
2013-09-30 09:27:00,62.6,59.3,29.99,SW,232,1.6,3.5,89,0.00,,,0.00,WeatherDisplay:10.37,2013-09-30 13:27:00,
2013-09-30 09:32:00,62.8,59.2,29.98,SW,231,1.2,3.5,88,0.00,,,0.00,WeatherDisplay:10.37,2013-09-30 13:32:00,
2013-09-30 09:37:00,63.1,59.2,29.98,SW,234,1.3,5.8,87,0.00,,,0.00,WeatherDisplay:10.37,2013-09-30 13:37:00,
2013-09-30 09:42:00,63.2,59.3,29.99,West,259,1.5,3.5,87,0.00,,,0.00,WeatherDisplay:10.37,2013-09-30 13:42:00,
2013-09-30 09:47:00,63.3,59.0,29.99,WSW,238,2.3,3.5,86,0.00,,,0.00,WeatherDisplay:10.37,2013-09-30 13:47:00,
2013-09-30 09:52:00,63.3,59.0,29.99,WSW,237,0.9,3.5,86,0.00,,,0.00,WeatherDisplay:10.37,2013-09-30 13:52:00,
2013-09-30 09:57:00,63.4,59.1,29.99,SW,221,0.9,2.3,86,0.00,,,0.00,WeatherDisplay:10.37,2013-09-30 13:57:00,
2013-09-30 10:02:00,63.5,59.2,29.99,SW,230,1.9,3.5,86,0.00,,,0.00,WeatherDisplay:10.37,2013-09-30 14:02:00,
2013-09-30 10:07:00,63.5,59.2,29.99,SW,230,1.8,4.0,86,0.00,,,0.00,WeatherDisplay:10.37,2013-09-30 14:07:00,
2013-09-30 10:12:00,63.4,59.1,29.99,SW,236,1.8,3.5,86,0.00,,,0.00,WeatherDisplay:10.37,2013-09-30 14:12:00,
2013-09-30 10:18:00,63.3,59.0,29.99,SW,228,2.4,4.6,86,0.00,,,0.00,WeatherDisplay:10.37,2013-09-30 14:18:00,
2013-09-30 10:23:00,63.3,59.0,29.99,WSW,238,2.7,3.5,86,0.00,,,0.00,WeatherDisplay:10.37,2013-09-30 14:23:00,
2013-09-30 10:28:00,63.1,58.8,29.99,SW,217,2.3,3.5,86,0.00,,,0.00,WeatherDisplay:10.37,2013-09-30 14:28:00,
2013-09-30 10:33:00,63.0,58.7,29.99,WSW,250,1.6,3.5,86,0.00,,,0.00,WeatherDisplay:10.37,2013-09-30 14:33:00,
2013-09-30 10:38:00,63.0,58.7,29.99,WSW,247,0.6,3.5,86,0.00,,,0.00,WeatherDisplay:10.37,2013-09-30 14:38:00,
2013-09-30 10:43:00,62.9,58.6,29.99,SW,227,3.4,4.6,86,0.00,,,0.00,WeatherDisplay:10.37,2013-09-30 14:43:00,
2013-09-30 10:48:00,62.8,58.5,29.98,WSW,256,2.3,3.5,86,0.00,,,0.00,WeatherDisplay:10.37,2013-09-30 14:48:00,
2013-09-30 10:53:00,62.7,58.5,29.99,SW,236,0.7,3.5,86,0.00,,,0.00,WeatherDisplay:10.37,2013-09-30 14:53:00,
2013-09-30 10:58:00,62.8,58.5,29.99,WSW,247,1.2,3.5,86,0.00,,,0.00,WeatherDisplay:10.37,2013-09-30 14:58:00,
2013-09-30 11:03:00,62.9,58.3,29.99,WSW,244,2.3,4.6,85,0.00,,,0.00,WeatherDisplay:10.37,2013-09-30 15:03:00,
2013-09-30 11:08:00,63.0,58.7,29.99,SW,230,2.3,4.0,86,0.00,,,0.00,WeatherDisplay:10.37,2013-09-30 15:08:00,
2013-09-30 11:13:00,63.0,58.4,29.99,WSW,246,0.6,2.3,85,0.00,,,0.00,WeatherDisplay:10.37,2013-09-30 15:13:00,
2013-09-30 11:18:00,62.9,58.6,29.99,WSW,243,1.1,3.5,86,0.00,,,0.00,WeatherDisplay:10.37,2013-09-30 15:18:00,
2013-09-30 11:23:00,62.9,58.3,29.99,SW,225,1.8,3.5,85,0.00,,,0.00,WeatherDisplay:10.37,2013-09-30 15:23:00,
2013-09-30 11:28:00,62.9,58.6,29.99,WSW,248,0.5,2.3,86,0.00,,,0.00,WeatherDisplay:10.37,2013-09-30 15:28:00,
2013-09-30 11:33:00,62.8,58.2,29.99,WSW,245,2.7,4.6,85,0.00,,,0.00,WeatherDisplay:10.37,2013-09-30 15:33:00,
2013-09-30 11:38:00,62.9,58.3,29.99,SW,214,1.4,3.5,85,0.00,,,0.00,WeatherDisplay:10.37,2013-09-30 15:38:00,
2013-09-30 11:43:00,62.9,58.3,29.99,SW,215,2.8,4.6,85,0.00,,,0.00,WeatherDisplay:10.37,2013-09-30 15:43:00,
2013-09-30 11:48:00,63.1,58.5,29.99,SSW,196,1.2,5.0,85,0.00,,,0.00,WeatherDisplay:10.37,2013-09-30 15:48:00,
2013-09-30 11:53:00,63.3,58.4,29.98,SW,229,0.9,2.3,84,0.00,,,0.00,WeatherDisplay:10.37,2013-09-30 15:53:00,
2013-09-30 11:58:00,63.5,58.9,29.98,WSW,257,1.1,2.3,85,0.00,,,0.00,WeatherDisplay:10.37,2013-09-30 15:58:00,
2013-09-30 12:03:00,63.6,58.7,29.98,WSW,247,1.9,3.5,84,0.00,,,0.00,WeatherDisplay:10.37,2013-09-30 16:03:00,
2013-09-30 12:08:00,63.8,59.2,29.99,WSW,244,1.3,3.5,85,0.00,,,0.00,WeatherDisplay:10.37,2013-09-30 16:08:00,
2013-09-30 12:13:00,64.0,58.4,29.99,SW,234,2.0,3.5,82,0.00,,,0.00,WeatherDisplay:10.37,2013-09-30 16:13:00,
2013-09-30 12:18:00,64.0,58.4,29.99,WSW,248,0.6,2.3,82,0.00,,,0.00,WeatherDisplay:10.37,2013-09-30 16:18:00,
2013-09-30 12:23:00,64.0,58.4,29.98,WSW,258,2.3,3.5,82,0.00,,,0.00,WeatherDisplay:10.37,2013-09-30 16:23:00,
2013-09-30 12:28:00,63.8,58.2,29.98,WSW,239,2.7,5.8,82,0.00,,,0.00,WeatherDisplay:10.37,2013-09-30 16:28:00,
2013-09-30 12:33:00,63.7,58.4,29.98,WSW,248,2.2,3.5,83,0.00,,,0.00,WeatherDisplay:10.37,2013-09-30 16:33:00,
2013-09-30 12:38:00,63.7,58.8,29.98,WSW,256,1.1,3.5,84,0.00,,,0.00,WeatherDisplay:10.37,2013-09-30 16:38:00,
2013-09-30 12:43:00,63.7,58.8,29.98,SW,226,1.6,3.5,84,0.00,,,0.00,WeatherDisplay:10.37,2013-09-30 16:43:00,
2013-09-30 12:48:00,63.6,58.7,29.99,WSW,249,1.4,4.6,84,0.00,,,0.00,WeatherDisplay:10.37,2013-09-30 16:48:00,
2013-09-30 12:53:00,63.6,58.7,29.99,SW,236,1.3,3.5,84,0.00,,,0.00,WeatherDisplay:10.37,2013-09-30 16:53:00,
2013-09-30 12:58:00,63.7,59.1,29.98,SW,220,1.5,3.5,85,0.00,,,0.00,WeatherDisplay:10.37,2013-09-30 16:58:00,
2013-09-30 13:03:00,63.8,59.2,29.98,West,280,1.5,3.5,85,0.00,,,0.00,WeatherDisplay:10.37,2013-09-30 17:03:00,
2013-09-30 13:08:00,63.9,59.0,29.98,SW,236,1.3,2.3,84,0.00,,,0.00,WeatherDisplay:10.37,2013-09-30 17:08:00,
2013-09-30 13:13:00,64.1,59.2,29.98,WSW,240,0.3,2.3,84,0.00,,,0.00,WeatherDisplay:10.37,2013-09-30 17:13:00,
2013-09-30 13:18:00,64.2,59.3,29.98,WSW,240,0.3,1.2,84,0.00,,,0.00,WeatherDisplay:10.37,2013-09-30 17:18:00,
2013-09-30 13:23:00,64.1,58.8,29.98,SW,232,1.0,2.3,83,0.00,,,0.00,WeatherDisplay:10.37,2013-09-30 17:23:00,
2013-09-30 13:28:00,64.0,59.1,29.98,SW,232,1.4,2.3,84,0.00,,,0.00,WeatherDisplay:10.37,2013-09-30 17:28:00,
2013-09-30 13:33:00,63.8,58.9,29.98,SW,230,2.7,3.5,84,0.00,,,0.00,WeatherDisplay:10.37,2013-09-30 17:33:00,
2013-09-30 13:38:00,63.5,58.6,29.98,WSW,239,1.3,3.5,84,0.00,,,0.00,WeatherDisplay:10.37,2013-09-30 17:38:00,
2013-09-30 13:43:00,63.4,58.8,29.97,SW,227,2.0,3.5,85,0.00,,,0.00,WeatherDisplay:10.37,2013-09-30 17:43:00,
2013-09-30 13:48:00,63.2,58.6,29.98,SW,227,1.6,3.5,85,0.00,,,0.00,WeatherDisplay:10.37,2013-09-30 17:48:00,
2013-09-30 13:53:00,63.0,58.7,29.97,SW,223,1.1,2.3,86,0.00,,,0.00,WeatherDisplay:10.37,2013-09-30 17:53:00,
2013-09-30 13:58:00,62.9,58.6,29.97,SW,223,1.4,3.5,86,0.00,,,0.00,WeatherDisplay:10.37,2013-09-30 17:58:00,
2013-09-30 14:03:00,62.9,59.0,29.97,SW,223,0.3,2.3,87,0.00,,,0.00,WeatherDisplay:10.37,2013-09-30 18:03:00,
2013-09-30 14:08:00,62.9,59.0,29.97,WSW,253,1.3,3.5,87,0.00,,,0.00,WeatherDisplay:10.37,2013-09-30 18:08:00,
2013-09-30 14:13:00,62.9,59.0,29.97,West,261,0.8,2.3,87,0.00,,,0.00,WeatherDisplay:10.37,2013-09-30 18:13:00,
2013-09-30 14:18:00,63.1,59.5,29.97,SW,234,1.0,2.3,88,0.00,,,0.00,WeatherDisplay:10.37,2013-09-30 18:18:00,
2013-09-30 14:23:00,63.2,58.9,29.97,SW,233,2.1,3.5,86,0.00,,,0.00,WeatherDisplay:10.37,2013-09-30 18:23:00,
2013-09-30 14:28:00,63.1,58.8,29.97,SW,236,1.6,3.5,86,0.00,,,0.00,WeatherDisplay:10.37,2013-09-30 18:28:00,
2013-09-30 14:33:00,63.0,59.1,29.97,SW,229,0.5,2.3,87,0.00,,,0.00,WeatherDisplay:10.37,2013-09-30 18:33:00,
2013-09-30 14:38:00,62.7,58.8,29.97,WSW,242,1.4,3.5,87,0.00,,,0.00,WeatherDisplay:10.37,2013-09-30 18:38:00,
2013-09-30 14:43:00,62.7,59.1,29.96,SSW,198,1.6,3.0,88,0.00,,,0.00,WeatherDisplay:10.37,2013-09-30 18:43:00,
2013-09-30 14:48:00,62.7,59.1,29.96,SW,222,1.2,3.5,88,0.00,,,0.00,WeatherDisplay:10.37,2013-09-30 18:48:00,
2013-09-30 14:53:00,62.9,59.3,29.96,WSW,243,1.1,2.3,88,0.00,,,0.00,WeatherDisplay:10.37,2013-09-30 18:53:00,
2013-09-30 14:58:00,63.1,59.2,29.96,WSW,239,1.3,2.3,87,0.00,,,0.00,WeatherDisplay:10.37,2013-09-30 18:58:00,
2013-09-30 15:03:00,63.2,59.3,29.96,WSW,237,1.1,4.6,87,0.00,,,0.00,WeatherDisplay:10.37,2013-09-30 19:03:00,
2013-09-30 15:08:00,63.2,59.3,29.96,SW,229,1.5,2.3,87,0.00,,,0.00,WeatherDisplay:10.37,2013-09-30 19:08:00,
2013-09-30 15:13:00,63.3,59.0,29.96,SW,227,0.8,2.3,86,0.00,,,0.00,WeatherDisplay:10.37,2013-09-30 19:13:00,
2013-09-30 15:18:00,63.4,59.1,29.96,SW,236,1.3,3.5,86,0.00,,,0.00,WeatherDisplay:10.37,2013-09-30 19:18:00,
2013-09-30 15:23:00,63.6,59.7,29.96,SW,236,0.6,2.3,87,0.00,,,0.00,WeatherDisplay:10.37,2013-09-30 19:23:00,
2013-09-30 15:28:00,63.8,59.5,29.96,SW,236,0.8,2.3,86,0.00,,,0.00,WeatherDisplay:10.37,2013-09-30 19:28:00,
2013-09-30 15:33:00,64.0,59.7,29.96,SW,236,0.3,2.3,86,0.00,,,0.00,WeatherDisplay:10.37,2013-09-30 19:33:00,
2013-09-30 15:38:00,64.1,59.5,29.96,South,182,1.5,3.5,85,0.00,,,0.00,WeatherDisplay:10.37,2013-09-30 19:38:00,
2013-09-30 15:43:00,64.0,59.4,29.96,SW,219,0.8,2.3,85,0.00,,,0.00,WeatherDisplay:10.37,2013-09-30 19:43:00,
2013-09-30 15:48:00,63.8,59.2,29.95,SW,217,2.8,4.6,85,0.00,,,0.00,WeatherDisplay:10.37,2013-09-30 19:48:00,
2013-09-30 15:54:00,63.4,59.1,29.96,WSW,251,2.3,3.5,86,0.00,,,0.00,WeatherDisplay:10.37,2013-09-30 19:54:00,
2013-09-30 15:59:00,63.3,59.0,29.96,SW,233,2.7,3.5,86,0.00,,,0.00,WeatherDisplay:10.37,2013-09-30 19:59:00,
2013-09-30 16:04:00,63.2,58.9,29.95,SW,217,1.8,3.5,86,0.00,,,0.00,WeatherDisplay:10.37,2013-09-30 20:04:00,
2013-09-30 16:09:00,63.2,58.9,29.95,SW,231,0.7,3.5,86,0.00,,,0.00,WeatherDisplay:10.37,2013-09-30 20:09:00,
2013-09-30 16:14:00,63.2,59.3,29.95,SW,227,1.1,2.3,87,0.00,,,0.00,WeatherDisplay:10.37,2013-09-30 20:14:00,
2013-09-30 16:19:00,63.2,59.3,29.95,SW,227,1.8,3.5,87,0.00,,,0.00,WeatherDisplay:10.37,2013-09-30 20:19:00,
2013-09-30 16:24:00,63.2,59.3,29.95,SW,225,0.9,3.5,87,0.00,,,0.00,WeatherDisplay:10.37,2013-09-30 20:24:00,
2013-09-30 16:29:00,63.2,59.3,29.95,SW,225,0.7,3.5,87,0.00,,,0.00,WeatherDisplay:10.37,2013-09-30 20:29:00,
2013-09-30 16:34:00,63.1,59.5,29.95,SW,216,0.6,2.3,88,0.00,,,0.00,WeatherDisplay:10.37,2013-09-30 20:34:00,
2013-09-30 16:39:00,63.1,59.5,29.95,SW,217,0.8,3.5,88,0.00,,,0.00,WeatherDisplay:10.37,2013-09-30 20:39:00,
2013-09-30 16:44:00,63.1,59.5,29.95,WSW,254,0.4,2.3,88,0.00,,,0.00,WeatherDisplay:10.37,2013-09-30 20:44:00,
2013-09-30 16:49:00,63.2,59.6,29.94,SSW,195,1.4,3.5,88,0.00,,,0.00,WeatherDisplay:10.37,2013-09-30 20:49:00,
2013-09-30 16:54:00,63.2,59.3,29.94,SW,215,0.6,2.3,87,0.00,,,0.00,WeatherDisplay:10.37,2013-09-30 20:54:00,
2013-09-30 16:59:00,63.3,59.4,29.94,SW,230,2.6,3.5,87,0.00,,,0.00,WeatherDisplay:10.37,2013-09-30 20:59:00,
2013-09-30 17:04:00,63.6,59.7,29.94,SW,232,0.7,4.0,87,0.00,,,0.00,WeatherDisplay:10.37,2013-09-30 21:04:00,
2013-09-30 17:09:00,63.9,59.6,29.94,SW,224,1.9,4.6,86,0.00,,,0.00,WeatherDisplay:10.37,2013-09-30 21:09:00,
2013-09-30 17:14:00,64.0,59.7,29.94,WSW,238,1.3,2.3,86,0.00,,,0.00,WeatherDisplay:10.37,2013-09-30 21:14:00,
2013-09-30 17:19:00,64.1,59.8,29.94,SW,224,2.1,3.5,86,0.00,,,0.00,WeatherDisplay:10.37,2013-09-30 21:19:00,
2013-09-30 17:24:00,64.4,59.8,29.94,SW,221,2.9,5.8,85,0.00,,,0.00,WeatherDisplay:10.37,2013-09-30 21:24:00,
2013-09-30 17:29:00,64.4,59.8,29.94,SW,221,1.8,3.5,85,0.00,,,0.00,WeatherDisplay:10.37,2013-09-30 21:29:00,
2013-09-30 17:34:00,64.4,59.8,29.94,WSW,239,1.8,3.5,85,0.00,,,0.00,WeatherDisplay:10.37,2013-09-30 21:34:00,
2013-09-30 17:39:00,64.3,59.7,29.94,SW,235,1.4,3.5,85,0.00,,,0.00,WeatherDisplay:10.37,2013-09-30 21:39:00,
2013-09-30 17:44:00,64.1,59.5,29.94,SW,225,2.0,3.5,85,0.00,,,0.00,WeatherDisplay:10.37,2013-09-30 21:44:00,
2013-09-30 17:49:00,63.9,59.6,29.94,SW,221,2.4,3.5,86,0.00,,,0.00,WeatherDisplay:10.37,2013-09-30 21:49:00,
2013-09-30 17:54:00,63.7,59.4,29.94,SW,224,1.3,3.5,86,0.00,,,0.00,WeatherDisplay:10.37,2013-09-30 21:54:00,
2013-09-30 17:59:00,63.5,59.2,29.94,SW,224,0.0,1.2,86,0.00,,,0.00,WeatherDisplay:10.37,2013-09-30 21:59:00,
2013-09-30 18:04:00,63.4,59.5,29.94,SW,225,0.2,2.3,87,0.00,,,0.00,WeatherDisplay:10.37,2013-09-30 22:04:00,
2013-09-30 18:09:00,63.4,59.5,29.95,SW,225,0.6,2.3,87,0.00,,,0.00,WeatherDisplay:10.37,2013-09-30 22:09:00,
2013-09-30 18:14:00,63.4,59.5,29.95,SW,218,0.9,2.3,87,0.00,,,0.00,WeatherDisplay:10.37,2013-09-30 22:14:00,
2013-09-30 18:19:00,63.4,59.5,29.95,SW,218,0.2,1.2,87,0.00,,,0.00,WeatherDisplay:10.37,2013-09-30 22:19:00,
2013-09-30 18:24:00,63.4,59.5,29.95,SW,218,0.4,1.2,87,0.00,,,0.00,WeatherDisplay:10.37,2013-09-30 22:24:00,
2013-09-30 18:29:00,63.4,59.5,29.95,SW,218,0.2,2.3,87,0.00,,,0.00,WeatherDisplay:10.37,2013-09-30 22:29:00,
2013-09-30 18:34:00,63.4,59.5,29.95,SW,218,0.2,1.2,87,0.00,,,0.00,WeatherDisplay:10.37,2013-09-30 22:34:00,
2013-09-30 18:39:00,63.4,59.5,29.95,SW,218,0.4,1.2,87,0.00,,,0.00,WeatherDisplay:10.37,2013-09-30 22:39:00,
2013-09-30 18:44:00,63.3,59.4,29.95,SW,218,0.0,1.2,87,0.00,,,0.00,WeatherDisplay:10.37,2013-09-30 22:44:00,
2013-09-30 18:50:00,63.1,59.2,29.96,SW,218,0.1,1.2,87,0.00,,,0.00,WeatherDisplay:10.37,2013-09-30 22:50:00,
2013-09-30 18:55:00,63.0,59.4,29.96,SW,218,0.0,0.0,88,0.00,,,0.00,WeatherDisplay:10.37,2013-09-30 22:55:00,
2013-09-30 19:00:00,62.9,59.3,29.96,SW,218,0.0,0.0,88,0.00,,,0.00,WeatherDisplay:10.37,2013-09-30 23:00:00,
2013-09-30 19:05:00,62.8,59.2,29.96,SW,218,0.0,0.0,88,0.00,,,0.00,WeatherDisplay:10.37,2013-09-30 23:05:00,
2013-09-30 19:10:00,62.4,58.8,29.96,SW,218,0.0,0.0,88,0.00,,,0.00,WeatherDisplay:10.37,2013-09-30 23:10:00,
2013-09-30 19:15:00,62.0,58.4,29.96,SW,218,0.0,0.0,88,0.00,,,0.00,WeatherDisplay:10.37,2013-09-30 23:15:00,
2013-09-30 19:20:00,61.6,58.3,29.96,SW,218,0.2,1.2,89,0.00,,,0.00,WeatherDisplay:10.37,2013-09-30 23:20:00,
2013-09-30 19:25:00,61.2,58.2,29.96,SW,218,0.0,0.0,90,0.00,,,0.00,WeatherDisplay:10.37,2013-09-30 23:25:00,
2013-09-30 19:30:00,60.9,58.3,29.96,SW,218,0.1,1.2,91,0.00,,,0.00,WeatherDisplay:10.37,2013-09-30 23:30:00,
2013-09-30 19:35:00,60.8,58.2,29.95,SW,218,0.0,0.0,91,0.00,,,0.00,WeatherDisplay:10.37,2013-09-30 23:35:00,
2013-09-30 19:40:00,60.6,58.3,29.95,SW,214,0.0,0.0,92,0.00,,,0.00,WeatherDisplay:10.37,2013-09-30 23:40:00,
2013-09-30 19:45:00,60.4,58.1,29.96,SW,214,0.0,0.0,92,0.00,,,0.00,WeatherDisplay:10.37,2013-09-30 23:45:00,
2013-09-30 19:50:00,60.2,57.9,29.96,SW,214,0.0,0.0,92,0.00,,,0.00,WeatherDisplay:10.37,2013-09-30 23:50:00,
2013-09-30 19:55:00,60.0,57.7,29.96,SW,214,0.0,0.0,92,0.00,,,0.00,WeatherDisplay:10.37,2013-09-30 23:55:00,
2013-09-30 20:00:00,59.8,57.8,29.96,SSE,152,0.0,0.0,93,0.00,,,0.00,WeatherDisplay:10.37,2013-10-01 00:00:00,
2013-09-30 20:05:00,59.6,57.6,29.96,SSE,152,0.1,1.2,93,0.00,,,0.00,WeatherDisplay:10.37,2013-10-01 00:05:00,
2013-09-30 20:10:00,59.5,57.8,29.97,SSE,152,0.0,0.0,94,0.00,,,0.00,WeatherDisplay:10.37,2013-10-01 00:10:00,
2013-09-30 20:15:00,59.4,57.7,29.97,SSE,152,0.0,0.0,94,0.00,,,0.00,WeatherDisplay:10.37,2013-10-01 00:15:00,
2013-09-30 20:20:00,59.1,57.4,29.97,SSE,152,0.0,0.0,94,0.00,,,0.00,WeatherDisplay:10.37,2013-10-01 00:20:00,
2013-09-30 20:25:00,58.9,57.2,29.97,SSE,152,0.0,0.0,94,0.00,,,0.00,WeatherDisplay:10.37,2013-10-01 00:25:00,
2013-09-30 20:30:00,58.7,57.0,29.97,SSE,152,0.0,0.0,94,0.00,,,0.00,WeatherDisplay:10.37,2013-10-01 00:30:00,
2013-09-30 20:35:00,58.5,56.8,29.97,SSE,152,0.0,0.0,94,0.00,,,0.00,WeatherDisplay:10.37,2013-10-01 00:35:00,
2013-09-30 20:40:00,58.4,57.0,29.97,SSE,152,0.0,0.0,95,0.00,,,0.00,WeatherDisplay:10.37,2013-10-01 00:40:00,
2013-09-30 20:45:00,58.3,56.9,29.97,SSE,152,0.0,0.0,95,0.00,,,0.00,WeatherDisplay:10.37,2013-10-01 00:45:00,
2013-09-30 20:50:00,58.2,56.8,29.96,SSE,152,0.0,0.0,95,0.00,,,0.00,WeatherDisplay:10.37,2013-10-01 00:50:00,
2013-09-30 20:55:00,58.2,56.8,29.97,SSE,152,0.0,0.0,95,0.00,,,0.00,WeatherDisplay:10.37,2013-10-01 00:55:00,
2013-09-30 21:00:00,58.1,56.7,29.97,SSE,152,0.0,0.0,95,0.00,,,0.00,WeatherDisplay:10.37,2013-10-01 01:00:00,
2013-09-30 21:05:00,58.0,56.6,29.97,SSE,152,0.0,0.0,95,0.00,,,0.00,WeatherDisplay:10.37,2013-10-01 01:05:00,
2013-09-30 21:10:00,57.9,56.8,29.97,SSE,152,0.0,0.0,96,0.00,,,0.00,WeatherDisplay:10.37,2013-10-01 01:10:00,
2013-09-30 21:15:00,57.9,56.8,29.97,SSE,152,0.0,0.0,96,0.00,,,0.00,WeatherDisplay:10.37,2013-10-01 01:15:00,
2013-09-30 21:20:00,57.8,56.7,29.97,SSE,152,0.0,0.0,96,0.00,,,0.00,WeatherDisplay:10.37,2013-10-01 01:20:00,
2013-09-30 21:25:00,57.7,56.6,29.97,SSE,152,0.6,1.2,96,0.00,,,0.00,WeatherDisplay:10.37,2013-10-01 01:25:00,
2013-09-30 21:30:00,57.7,56.6,29.97,SSE,152,0.5,1.2,96,0.00,,,0.00,WeatherDisplay:10.37,2013-10-01 01:30:00,
2013-09-30 21:35:00,57.4,56.0,29.97,SSE,152,0.3,1.2,95,0.00,,,0.00,WeatherDisplay:10.37,2013-10-01 01:35:00,
2013-09-30 21:40:00,57.1,55.7,29.97,SSE,152,0.0,0.0,95,0.00,,,0.00,WeatherDisplay:10.37,2013-10-01 01:40:00,
2013-09-30 21:45:00,56.9,55.8,29.97,SSE,152,0.0,0.0,96,0.00,,,0.00,WeatherDisplay:10.37,2013-10-01 01:45:00,
2013-09-30 21:50:00,57.0,55.9,29.97,SSE,152,0.0,0.0,96,0.00,,,0.00,WeatherDisplay:10.37,2013-10-01 01:50:00,
2013-09-30 21:55:00,57.1,56.3,29.97,SSE,152,0.0,0.0,97,0.00,,,0.00,WeatherDisplay:10.37,2013-10-01 01:55:00,
2013-09-30 22:01:00,57.2,56.4,29.97,SSE,152,0.0,0.0,97,0.00,,,0.00,WeatherDisplay:10.37,2013-10-01 02:01:00,
2013-09-30 22:06:00,57.3,56.5,29.97,SSE,152,0.2,0.0,97,0.00,,,0.00,WeatherDisplay:10.37,2013-10-01 02:06:00,
2013-09-30 22:11:00,57.4,56.6,29.97,SSE,152,0.0,0.0,97,0.00,,,0.00,WeatherDisplay:10.37,2013-10-01 02:11:00,
2013-09-30 22:16:00,57.4,56.6,29.97,SSE,152,0.0,0.0,97,0.00,,,0.00,WeatherDisplay:10.37,2013-10-01 02:16:00,
2013-09-30 22:21:00,57.3,56.5,29.97,SSE,153,0.0,0.0,97,0.00,,,0.00,WeatherDisplay:10.37,2013-10-01 02:21:00,
2013-09-30 22:26:00,57.3,56.5,29.97,SSE,153,0.0,0.0,97,0.00,,,0.00,WeatherDisplay:10.37,2013-10-01 02:26:00,
2013-09-30 22:31:00,57.3,56.5,29.97,SSE,153,0.0,0.0,97,0.00,,,0.00,WeatherDisplay:10.37,2013-10-01 02:31:00,
2013-09-30 22:36:00,57.3,56.5,29.97,SSE,153,0.0,0.0,97,0.00,,,0.00,WeatherDisplay:10.37,2013-10-01 02:36:00,
2013-09-30 22:41:00,57.2,56.4,29.97,SSE,153,0.0,0.0,97,0.00,,,0.00,WeatherDisplay:10.37,2013-10-01 02:41:00,
2013-09-30 22:46:00,57.1,56.3,29.97,SSE,153,0.0,0.0,97,0.00,,,0.00,WeatherDisplay:10.37,2013-10-01 02:46:00,
2013-09-30 22:51:00,57.1,56.3,29.97,SSE,153,0.0,0.0,97,0.00,,,0.00,WeatherDisplay:10.37,2013-10-01 02:51:00,
2013-09-30 22:56:00,57.1,56.3,29.97,SSE,153,0.0,1.2,97,0.00,,,0.00,WeatherDisplay:10.37,2013-10-01 02:56:00,
2013-09-30 23:01:00,57.3,56.5,29.97,SSE,153,0.2,1.2,97,0.00,,,0.00,WeatherDisplay:10.37,2013-10-01 03:01:00,
2013-09-30 23:06:00,57.3,56.5,29.97,SSE,159,0.0,0.0,97,0.00,,,0.00,WeatherDisplay:10.37,2013-10-01 03:06:00,
2013-09-30 23:11:00,57.1,56.0,29.97,SSE,159,0.0,0.0,96,0.00,,,0.00,WeatherDisplay:10.37,2013-10-01 03:11:00,
2013-09-30 23:16:00,57.0,55.9,29.97,SSE,159,0.0,0.0,96,0.00,,,0.00,WeatherDisplay:10.37,2013-10-01 03:16:00,
2013-09-30 23:21:00,56.8,55.7,29.97,SSE,159,0.0,0.0,96,0.00,,,0.00,WeatherDisplay:10.37,2013-10-01 03:21:00,
2013-09-30 23:26:00,56.9,56.1,29.97,SSE,160,0.0,1.2,97,0.00,,,0.00,WeatherDisplay:10.37,2013-10-01 03:26:00,
2013-09-30 23:31:00,57.0,56.2,29.97,SSE,160,0.4,1.2,97,0.00,,,0.00,WeatherDisplay:10.37,2013-10-01 03:31:00,
2013-09-30 23:36:00,57.0,56.2,29.97,SSW,200,1.1,2.3,97,0.00,,,0.00,WeatherDisplay:10.37,2013-10-01 03:36:00,
2013-09-30 23:41:00,57.2,56.1,29.97,SW,215,1.0,2.3,96,0.00,,,0.00,WeatherDisplay:10.37,2013-10-01 03:41:00,
2013-09-30 23:46:00,57.1,56.0,29.97,SW,215,0.3,1.2,96,0.00,,,0.00,WeatherDisplay:10.37,2013-10-01 03:46:00,
2013-09-30 23:51:00,57.1,56.0,29.97,SW,215,0.6,2.3,96,0.00,,,0.00,WeatherDisplay:10.37,2013-10-01 03:51:00,
2013-09-30 23:56:00,57.0,55.9,29.97,SW,216,1.0,2.3,96,0.00,,,0.00,WeatherDisplay:10.37,2013-10-01 03:56:00,